Cincinnati Municipal Airport Lunken Field
KLUK : now visible

Airfield :











YOU CAN JOIN US ON...

 
LOGIN :

Register | Disclaimer

   EN    FR    IT 

 









Legend :    VFR   Marginal VFR   IFR   Intensive IFR   Very Intensive IFR
Visi :
Ceiling :
>= 8 km
>= 3000ft
5 to 8 km
1000 to 3000 ft
1500m to 5 km
500 to 1000 ft
800 to 1500m
200 to 500 ft
< 800m
< 200 ft
Symbols :   Thunderstorms  Fog  Heavy snow  Heavy precipitations  Wind > 20 kt






- Airport Elevation : 483 ft
- IATA code : LUK


KLUK - Cincinnati Municipal Lunken Field

CURRENT METAR :
  • 162153Z 07007KT 10SM BKN060 BKN070 26/16 A2997 RMK AO2 SLP145 T02560161

EXPIRED METARs :
  • 162053Z 05010KT 10SM FEW055 SCT070 BKN110 27/16 A2998 RMK AO2 SLP148 T02720161 56010
  • 161953Z 05006KT 10SM BKN060 OVC075 27/15 A2998 RMK AO2 SLP148 T02670150

TAF KLUK
Valid from the 16 at 18:00 until the 17 at 18:00 UTC


161720Z 1618/1718 04008KT P6SM SCT035
FM170100 03003KT P6SM SCT250
FM170800 06007KT 4SM BR SCT250
TEMPO 1709/1712 1SM BR
FM171300 06004KT P6SM SCT250
FM171500 06008KT P6SM SCT040
KZID FIR / North America



MET'MAP, your aeronautical weather chart ! - Copyright ORBIFLY December 2007 - Disclaimer

ORBIFLY MET'MAP TEAM :

Programming & Development : Alexandra Zaïnal
Original concept : Baudouin d'Aumeries
Technical & hardware support : Manuel Goepfert
Assistance : Marc-Olivier Méhu




SOURCES & CREDITS :

   NOAA       Earth
Advisory